ARE4404 SKBO-SVMI
Flight info
| Callsign | ARE4404 |
|---|---|
| Flight time | 1h 25m |
| Altitude | 37000 |
| Route | ZIP5H AKROB DCT KIKAS UP533 PBL ALDAK1 |
| Aircraft | A320/M-SDE3FGHIRWY/LB1 |
Departure
| Time | 2026-04-30 19:45 |
|---|---|
| Airport | El Dorado International Airport (SKBO) |
Arrival
| Time | 2026-04-30 21:11 |
|---|---|
| Airport | Maiquetía Simón Bolívar International Airport (SVMI) |
| Time | Latitude | Longitude | Altitude | Speed | Heading |
|---|---|---|---|---|---|
| 2026-04-30 18:53 | 4.69860 | -74.13977 | 8373 ft | 0 kts | 217° |
| 2026-04-30 19:33 | 4.69862 | -74.13975 | 8373 ft | 2 kts | 217° |
| 2026-04-30 19:33 | 4.69878 | -74.13963 | 8373 ft | 3 kts | 217° |
| 2026-04-30 19:33 | 4.69895 | -74.13950 | 8373 ft | 3 kts | 217° |
| 2026-04-30 19:34 | 4.69911 | -74.13937 | 8373 ft | 3 kts | 226° |
| 2026-04-30 19:34 | 4.69923 | -74.13922 | 8373 ft | 3 kts | 255° |
| 2026-04-30 19:34 | 4.69918 | -74.13893 | 8373 ft | 1 kts | 306° |
| 2026-04-30 19:35 | 4.69918 | -74.13892 | 8373 ft | 0 kts | 306° |
| 2026-04-30 19:37 | 4.69919 | -74.13894 | 8373 ft | 2 kts | 306° |
| 2026-04-30 19:38 | 4.69935 | -74.13916 | 8373 ft | 6 kts | 307° |
| 2026-04-30 19:38 | 4.69967 | -74.13959 | 8373 ft | 10 kts | 307° |
| 2026-04-30 19:38 | 4.70008 | -74.14013 | 8373 ft | 9 kts | 307° |
| 2026-04-30 19:38 | 4.70048 | -74.14066 | 8373 ft | 11 kts | 307° |
| 2026-04-30 19:39 | 4.70096 | -74.14129 | 8373 ft | 11 kts | 307° |
| 2026-04-30 19:39 | 4.70136 | -74.14181 | 8373 ft | 8 kts | 307° |
| 2026-04-30 19:39 | 4.70171 | -74.14221 | 8373 ft | 8 kts | 330° |
| 2026-04-30 19:39 | 4.70217 | -74.14213 | 8373 ft | 6 kts | 19° |
| 2026-04-30 19:40 | 4.70262 | -74.14227 | 8373 ft | 8 kts | 317° |
| 2026-04-30 19:40 | 4.70303 | -74.14282 | 8373 ft | 10 kts | 306° |
| 2026-04-30 19:40 | 4.70346 | -74.14338 | 8373 ft | 11 kts | 308° |
| 2026-04-30 19:40 | 4.70396 | -74.14404 | 8373 ft | 11 kts | 306° |
| 2026-04-30 19:41 | 4.70437 | -74.14460 | 8373 ft | 9 kts | 309° |
| 2026-04-30 19:41 | 4.70486 | -74.14468 | 8373 ft | 7 kts | 19° |
| 2026-04-30 19:41 | 4.70532 | -74.14470 | 8373 ft | 8 kts | 326° |
| 2026-04-30 19:41 | 4.70573 | -74.14522 | 8373 ft | 13 kts | 306° |
| 2026-04-30 19:42 | 4.70640 | -74.14611 | 8373 ft | 17 kts | 307° |
| 2026-04-30 19:42 | 4.70705 | -74.14697 | 8373 ft | 14 kts | 307° |
| 2026-04-30 19:42 | 4.70775 | -74.14791 | 8373 ft | 18 kts | 307° |
| 2026-04-30 19:42 | 4.70845 | -74.14882 | 8373 ft | 15 kts | 307° |
| 2026-04-30 19:43 | 4.70906 | -74.14963 | 8373 ft | 15 kts | 307° |
| 2026-04-30 19:43 | 4.70978 | -74.15057 | 8373 ft | 17 kts | 307° |
| 2026-04-30 19:43 | 4.71045 | -74.15147 | 8373 ft | 15 kts | 306° |
| 2026-04-30 19:44 | 4.71176 | -74.15225 | 8374 ft | 10 kts | 354° |
| 2026-04-30 19:44 | 4.71249 | -74.15233 | 8372 ft | 11 kts | 354° |
| 2026-04-30 19:44 | 4.71315 | -74.15209 | 8371 ft | 12 kts | 59° |
| 2026-04-30 19:44 | 4.71272 | -74.15120 | 8371 ft | 28 kts | 128° |
| 2026-04-30 19:45 | 4.71006 | -74.14771 | 8370 ft | 96 kts | 127° |
| 2026-04-30 19:45 | 4.70484 | -74.14079 | 8371 ft | 150 kts | 127° |
| 2026-04-30 19:45 | 4.69757 | -74.13150 | 8583 ft | 177 kts | 129° |
| 2026-04-30 19:45 | 4.69002 | -74.12181 | 9408 ft | 177 kts | 128° |
| 2026-04-30 19:46 | 4.68259 | -74.11192 | 9947 ft | 177 kts | 126° |
| 2026-04-30 19:46 | 4.67480 | -74.10168 | 10113 ft | 193 kts | 123° |
| 2026-04-30 19:46 | 4.67063 | -74.08884 | 10292 ft | 204 kts | 84° |
| 2026-04-30 19:46 | 4.67645 | -74.07564 | 10481 ft | 220 kts | 46° |
| 2026-04-30 19:47 | 4.69043 | -74.06848 | 10654 ft | 241 kts | 7° |
| 2026-04-30 19:47 | 4.70164 | -74.06952 | 10819 ft | 250 kts | 341° |
| 2026-04-30 19:47 | 4.72221 | -74.08132 | 11153 ft | 271 kts | 337° |
| 2026-04-30 19:47 | 4.74104 | -74.08430 | 11267 ft | 283 kts | 13° |
| 2026-04-30 19:48 | 4.76046 | -74.07857 | 11407 ft | 301 kts | 24° |
| 2026-04-30 19:48 | 4.77987 | -74.06941 | 11747 ft | 314 kts | 30° |
| 2026-04-30 19:48 | 4.79967 | -74.05970 | 12032 ft | 319 kts | 27° |
| 2026-04-30 19:48 | 4.82009 | -74.05063 | 12685 ft | 322 kts | 25° |
| 2026-04-30 19:49 | 4.84114 | -74.04243 | 13308 ft | 326 kts | 23° |
| 2026-04-30 19:49 | 4.88457 | -74.02793 | 14474 ft | 332 kts | 20° |
| 2026-04-30 19:49 | 4.90678 | -74.02109 | 15005 ft | 335 kts | 20° |
| 2026-04-30 19:50 | 4.92917 | -74.01427 | 15545 ft | 338 kts | 20° |
| 2026-04-30 19:50 | 4.95178 | -74.00735 | 16061 ft | 341 kts | 20° |
| 2026-04-30 19:50 | 4.97458 | -74.00029 | 16578 ft | 345 kts | 20° |
| 2026-04-30 19:50 | 4.99760 | -73.99309 | 17075 ft | 348 kts | 22° |
| 2026-04-30 19:51 | 5.01874 | -73.98192 | 17574 ft | 343 kts | 45° |
| 2026-04-30 19:51 | 5.03422 | -73.96347 | 17744 ft | 352 kts | 58° |
| 2026-04-30 19:51 | 5.04798 | -73.94299 | 17879 ft | 365 kts | 60° |
| 2026-04-30 19:51 | 5.06176 | -73.92127 | 18240 ft | 372 kts | 60° |
| 2026-04-30 19:52 | 5.07551 | -73.89920 | 18636 ft | 375 kts | 60° |
| 2026-04-30 19:52 | 5.08942 | -73.87694 | 19049 ft | 378 kts | 60° |
| 2026-04-30 19:52 | 5.10358 | -73.85454 | 19468 ft | 381 kts | 60° |
| 2026-04-30 19:52 | 5.11793 | -73.83215 | 19880 ft | 384 kts | 59° |
| 2026-04-30 19:53 | 5.13252 | -73.80961 | 20316 ft | 385 kts | 59° |
| 2026-04-30 19:53 | 5.14720 | -73.78704 | 20751 ft | 388 kts | 59° |
| 2026-04-30 19:53 | 5.16202 | -73.76424 | 21138 ft | 391 kts | 60° |
| 2026-04-30 19:53 | 5.17690 | -73.74126 | 21570 ft | 394 kts | 59° |
| 2026-04-30 19:54 | 5.19186 | -73.71811 | 21979 ft | 396 kts | 60° |
| 2026-04-30 19:54 | 5.20690 | -73.69482 | 22394 ft | 399 kts | 59° |
| 2026-04-30 19:54 | 5.22205 | -73.67135 | 22793 ft | 402 kts | 59° |
| 2026-04-30 19:54 | 5.23735 | -73.64770 | 23201 ft | 405 kts | 59° |
| 2026-04-30 19:55 | 5.25278 | -73.62390 | 23555 ft | 409 kts | 60° |
| 2026-04-30 19:55 | 5.26813 | -73.60024 | 23867 ft | 411 kts | 59° |
| 2026-04-30 19:55 | 5.28387 | -73.57598 | 24163 ft | 414 kts | 60° |
| 2026-04-30 19:55 | 5.29961 | -73.55171 | 24479 ft | 416 kts | 58° |
| 2026-04-30 19:56 | 5.31545 | -73.52721 | 24763 ft | 420 kts | 59° |
| 2026-04-30 19:56 | 5.33139 | -73.50252 | 25058 ft | 423 kts | 58° |
| 2026-04-30 19:56 | 5.34746 | -73.47768 | 25342 ft | 426 kts | 59° |
| 2026-04-30 19:56 | 5.36363 | -73.45268 | 25638 ft | 428 kts | 58° |
| 2026-04-30 19:57 | 5.38113 | -73.42836 | 25915 ft | 432 kts | 51° |
| 2026-04-30 19:57 | 5.40244 | -73.40700 | 26177 ft | 435 kts | 43° |
| 2026-04-30 19:57 | 5.42503 | -73.38705 | 26451 ft | 438 kts | 42° |
| 2026-04-30 19:57 | 5.44803 | -73.36673 | 26715 ft | 440 kts | 42° |
| 2026-04-30 19:58 | 5.47108 | -73.34629 | 26974 ft | 443 kts | 42° |
| 2026-04-30 19:58 | 5.49419 | -73.32574 | 27217 ft | 446 kts | 42° |
| 2026-04-30 19:58 | 5.51753 | -73.30496 | 27452 ft | 449 kts | 41° |
| 2026-04-30 19:58 | 5.54095 | -73.28411 | 27708 ft | 451 kts | 42° |
| 2026-04-30 19:59 | 5.56453 | -73.26313 | 27904 ft | 454 kts | 41° |
| 2026-04-30 19:59 | 5.58820 | -73.24205 | 28171 ft | 456 kts | 41° |
| 2026-04-30 19:59 | 5.63598 | -73.19949 | 28646 ft | 461 kts | 41° |
| 2026-04-30 20:00 | 5.65977 | -73.17834 | 28903 ft | 462 kts | 41° |
| 2026-04-30 20:00 | 5.68395 | -73.15687 | 29103 ft | 465 kts | 40° |
| 2026-04-30 20:00 | 5.70825 | -73.13529 | 29342 ft | 467 kts | 40° |
| 2026-04-30 20:00 | 5.73266 | -73.11361 | 29559 ft | 469 kts | 41° |
| 2026-04-30 20:01 | 5.78169 | -73.07005 | 30050 ft | 471 kts | 41° |
| 2026-04-30 20:01 | 5.80623 | -73.04818 | 30237 ft | 473 kts | 40° |
| 2026-04-30 20:01 | 5.83098 | -73.02612 | 30407 ft | 475 kts | 40° |
| 2026-04-30 20:02 | 5.88037 | -72.98212 | 30734 ft | 478 kts | 40° |
| 2026-04-30 20:02 | 5.90534 | -72.95987 | 30912 ft | 480 kts | 40° |
| 2026-04-30 20:03 | 5.95538 | -72.91525 | 31408 ft | 480 kts | 40° |
| 2026-04-30 20:03 | 5.98036 | -72.89299 | 31640 ft | 479 kts | 40° |
| 2026-04-30 20:03 | 6.00532 | -72.87074 | 31869 ft | 480 kts | 40° |
| 2026-04-30 20:03 | 6.02990 | -72.84879 | 32110 ft | 480 kts | 40° |
| 2026-04-30 20:04 | 6.05492 | -72.82647 | 32364 ft | 479 kts | 39° |
| 2026-04-30 20:04 | 6.07981 | -72.80428 | 32629 ft | 479 kts | 39° |
| 2026-04-30 20:04 | 6.10473 | -72.78204 | 32882 ft | 479 kts | 39° |
| 2026-04-30 20:05 | 6.15463 | -72.73749 | 33334 ft | 479 kts | 39° |
| 2026-04-30 20:05 | 6.17959 | -72.71519 | 33550 ft | 480 kts | 39° |
| 2026-04-30 20:05 | 6.22953 | -72.67065 | 34056 ft | 480 kts | 39° |
| 2026-04-30 20:06 | 6.25456 | -72.64834 | 34245 ft | 480 kts | 39° |
| 2026-04-30 20:06 | 6.27954 | -72.62606 | 34458 ft | 480 kts | 39° |
| 2026-04-30 20:06 | 6.30451 | -72.60382 | 34702 ft | 479 kts | 38° |
| 2026-04-30 20:06 | 6.32943 | -72.58163 | 34951 ft | 478 kts | 38° |
| 2026-04-30 20:07 | 6.35394 | -72.55978 | 35196 ft | 477 kts | 38° |
| 2026-04-30 20:07 | 6.37872 | -72.53767 | 35435 ft | 476 kts | 38° |
| 2026-04-30 20:07 | 6.42808 | -72.49354 | 35919 ft | 474 kts | 38° |
| 2026-04-30 20:08 | 6.45266 | -72.47152 | 36173 ft | 472 kts | 38° |
| 2026-04-30 20:08 | 6.47720 | -72.44955 | 36368 ft | 472 kts | 38° |
| 2026-04-30 20:08 | 6.50178 | -72.42759 | 36588 ft | 472 kts | 38° |
| 2026-04-30 20:08 | 6.52633 | -72.40567 | 36821 ft | 471 kts | 38° |
| 2026-04-30 20:09 | 6.55082 | -72.38379 | 36987 ft | 472 kts | 38° |
| 2026-04-30 20:09 | 6.62467 | -72.31772 | 37030 ft | 473 kts | 38° |
| 2026-04-30 20:10 | 6.69820 | -72.25200 | 36986 ft | 472 kts | 38° |
| 2026-04-30 20:11 | 6.77182 | -72.18611 | 36984 ft | 471 kts | 38° |
| 2026-04-30 20:11 | 6.82079 | -72.14230 | 36932 ft | 471 kts | 38° |
| 2026-04-30 20:12 | 6.89385 | -72.07673 | 36869 ft | 470 kts | 38° |
| 2026-04-30 20:13 | 6.94277 | -72.03294 | 36850 ft | 470 kts | 38° |
| 2026-04-30 20:13 | 6.99179 | -71.98916 | 36843 ft | 471 kts | 38° |
| 2026-04-30 20:14 | 7.03866 | -71.94293 | 36849 ft | 473 kts | 44° |
| 2026-04-30 20:14 | 7.08342 | -71.89418 | 36847 ft | 473 kts | 44° |
| 2026-04-30 20:15 | 7.12790 | -71.84582 | 36850 ft | 473 kts | 44° |
| 2026-04-30 20:15 | 7.17291 | -71.79705 | 36842 ft | 474 kts | 44° |
| 2026-04-30 20:16 | 7.21755 | -71.74868 | 36843 ft | 474 kts | 44° |
| 2026-04-30 20:16 | 7.26239 | -71.69990 | 36825 ft | 475 kts | 44° |
| 2026-04-30 20:17 | 7.30733 | -71.65106 | 36830 ft | 476 kts | 44° |
| 2026-04-30 20:17 | 7.35233 | -71.60213 | 36838 ft | 476 kts | 44° |
| 2026-04-30 20:18 | 7.39741 | -71.55305 | 36838 ft | 476 kts | 44° |
| 2026-04-30 20:18 | 7.44247 | -71.50416 | 36839 ft | 476 kts | 44° |
| 2026-04-30 20:19 | 7.48745 | -71.45530 | 36842 ft | 476 kts | 44° |
| 2026-04-30 20:19 | 7.53210 | -71.40662 | 36848 ft | 475 kts | 44° |
| 2026-04-30 20:20 | 7.57698 | -71.35765 | 36849 ft | 475 kts | 44° |
| 2026-04-30 20:20 | 7.62190 | -71.30869 | 36845 ft | 475 kts | 44° |
| 2026-04-30 20:21 | 7.66681 | -71.25980 | 36851 ft | 475 kts | 44° |
| 2026-04-30 20:21 | 7.71176 | -71.21083 | 36851 ft | 475 kts | 44° |
| 2026-04-30 20:22 | 7.75672 | -71.16178 | 36851 ft | 475 kts | 44° |
| 2026-04-30 20:22 | 7.80158 | -71.11280 | 36852 ft | 475 kts | 44° |
| 2026-04-30 20:23 | 7.84621 | -71.06409 | 36853 ft | 475 kts | 44° |
| 2026-04-30 20:23 | 7.89116 | -71.01503 | 36847 ft | 476 kts | 44° |
| 2026-04-30 20:24 | 7.93606 | -70.96603 | 36869 ft | 475 kts | 44° |
| 2026-04-30 20:24 | 7.97332 | -70.92537 | 36868 ft | 475 kts | 44° |
| 2026-04-30 20:25 | 8.04044 | -70.85194 | 36877 ft | 474 kts | 44° |
| 2026-04-30 20:26 | 8.10749 | -70.77874 | 36875 ft | 473 kts | 44° |
| 2026-04-30 20:26 | 8.17447 | -70.70556 | 36874 ft | 473 kts | 44° |
| 2026-04-30 20:27 | 8.26327 | -70.60820 | 36876 ft | 473 kts | 44° |
| 2026-04-30 20:28 | 8.35239 | -70.51050 | 36871 ft | 472 kts | 44° |
| 2026-04-30 20:30 | 8.46368 | -70.38861 | 36871 ft | 472 kts | 44° |
| 2026-04-30 20:31 | 8.59676 | -70.24255 | 36875 ft | 471 kts | 45° |
| 2026-04-30 20:32 | 8.70601 | -70.11925 | 36872 ft | 470 kts | 46° |
| 2026-04-30 20:33 | 8.77080 | -70.04492 | 36851 ft | 469 kts | 46° |
| 2026-04-30 20:34 | 8.83585 | -69.97089 | 36865 ft | 469 kts | 46° |
| 2026-04-30 20:35 | 8.90076 | -69.89672 | 36854 ft | 469 kts | 47° |
| 2026-04-30 20:35 | 8.96563 | -69.82260 | 36877 ft | 468 kts | 47° |
| 2026-04-30 20:36 | 9.00849 | -69.77362 | 36858 ft | 467 kts | 47° |
| 2026-04-30 20:37 | 9.07309 | -69.69975 | 36856 ft | 467 kts | 47° |
| 2026-04-30 20:37 | 9.11605 | -69.65051 | 36857 ft | 466 kts | 47° |
| 2026-04-30 20:38 | 9.15909 | -69.60127 | 36852 ft | 466 kts | 47° |
| 2026-04-30 20:38 | 9.20181 | -69.55243 | 36851 ft | 466 kts | 47° |
| 2026-04-30 20:39 | 9.26641 | -69.47854 | 36834 ft | 468 kts | 46° |
| 2026-04-30 20:40 | 9.33121 | -69.40427 | 36829 ft | 469 kts | 46° |
| 2026-04-30 20:40 | 9.37444 | -69.35460 | 36835 ft | 470 kts | 46° |
| 2026-04-30 20:41 | 9.43939 | -69.28005 | 36837 ft | 471 kts | 46° |
| 2026-04-30 20:41 | 9.48254 | -69.23054 | 36831 ft | 471 kts | 46° |
| 2026-04-30 20:42 | 9.52585 | -69.18077 | 36841 ft | 471 kts | 46° |
| 2026-04-30 20:43 | 9.59108 | -69.10594 | 36816 ft | 473 kts | 46° |
| 2026-04-30 20:43 | 9.63471 | -69.05578 | 36822 ft | 474 kts | 46° |
| 2026-04-30 20:44 | 9.70028 | -68.98038 | 36823 ft | 476 kts | 46° |
| 2026-04-30 20:45 | 9.78773 | -68.87984 | 36837 ft | 477 kts | 45° |
| 2026-04-30 20:45 | 9.83167 | -68.82941 | 36837 ft | 477 kts | 45° |
| 2026-04-30 20:46 | 9.89705 | -68.75407 | 35444 ft | 469 kts | 47° |
| 2026-04-30 20:46 | 9.91848 | -68.72937 | 34741 ft | 463 kts | 47° |
| 2026-04-30 20:47 | 9.96064 | -68.68083 | 33250 ft | 454 kts | 48° |
| 2026-04-30 20:47 | 9.98140 | -68.65693 | 32605 ft | 450 kts | 48° |
| 2026-04-30 20:48 | 10.02273 | -68.60926 | 30809 ft | 454 kts | 50° |
| 2026-04-30 20:48 | 10.04329 | -68.58551 | 29992 ft | 451 kts | 50° |
| 2026-04-30 20:48 | 10.06417 | -68.56148 | 29108 ft | 445 kts | 50° |
| 2026-04-30 20:48 | 10.08420 | -68.53848 | 28428 ft | 435 kts | 50° |
| 2026-04-30 20:49 | 10.10401 | -68.51578 | 28028 ft | 426 kts | 50° |
| 2026-04-30 20:49 | 10.12357 | -68.49336 | 27569 ft | 422 kts | 50° |
| 2026-04-30 20:49 | 10.14295 | -68.47115 | 27114 ft | 419 kts | 50° |
| 2026-04-30 20:50 | 10.18121 | -68.42715 | 26214 ft | 413 kts | 50° |
| 2026-04-30 20:50 | 10.20012 | -68.40533 | 25764 ft | 410 kts | 49° |
| 2026-04-30 20:50 | 10.21895 | -68.38363 | 25289 ft | 409 kts | 49° |
| 2026-04-30 20:50 | 10.23777 | -68.36196 | 24819 ft | 407 kts | 49° |
| 2026-04-30 20:51 | 10.25646 | -68.34043 | 24362 ft | 405 kts | 49° |
| 2026-04-30 20:51 | 10.29340 | -68.29790 | 23580 ft | 397 kts | 48° |
| 2026-04-30 20:51 | 10.31164 | -68.27696 | 23095 ft | 394 kts | 48° |
| 2026-04-30 20:52 | 10.32950 | -68.25642 | 22612 ft | 392 kts | 49° |
| 2026-04-30 20:52 | 10.34746 | -68.23572 | 22139 ft | 389 kts | 49° |
| 2026-04-30 20:52 | 10.38290 | -68.19480 | 21174 ft | 381 kts | 49° |
| 2026-04-30 20:53 | 10.40032 | -68.17469 | 20506 ft | 377 kts | 49° |
| 2026-04-30 20:53 | 10.41733 | -68.15506 | 20063 ft | 366 kts | 50° |
| 2026-04-30 20:53 | 10.43393 | -68.13594 | 19637 ft | 356 kts | 51° |
| 2026-04-30 20:54 | 10.46601 | -68.09897 | 18810 ft | 340 kts | 51° |
| 2026-04-30 20:54 | 10.47944 | -68.07970 | 18420 ft | 329 kts | 64° |
| 2026-04-30 20:54 | 10.48852 | -68.05857 | 18018 ft | 326 kts | 75° |
| 2026-04-30 20:55 | 10.49926 | -68.01410 | 17231 ft | 323 kts | 78° |
| 2026-04-30 20:55 | 10.50452 | -67.99196 | 16846 ft | 322 kts | 78° |
| 2026-04-30 20:55 | 10.50979 | -67.96989 | 16476 ft | 321 kts | 78° |
| 2026-04-30 20:56 | 10.52022 | -67.92621 | 15752 ft | 319 kts | 78° |
| 2026-04-30 20:56 | 10.52543 | -67.90429 | 15392 ft | 319 kts | 78° |
| 2026-04-30 20:56 | 10.53579 | -67.86048 | 14667 ft | 318 kts | 78° |
| 2026-04-30 20:57 | 10.54093 | -67.83864 | 14301 ft | 318 kts | 78° |
| 2026-04-30 20:57 | 10.54608 | -67.81674 | 13931 ft | 318 kts | 78° |
| 2026-04-30 20:57 | 10.55123 | -67.79488 | 13562 ft | 318 kts | 78° |
| 2026-04-30 20:58 | 10.56152 | -67.75127 | 12803 ft | 315 kts | 78° |
| 2026-04-30 20:58 | 10.56662 | -67.72965 | 12421 ft | 314 kts | 78° |
| 2026-04-30 20:58 | 10.57170 | -67.70814 | 12051 ft | 312 kts | 78° |
| 2026-04-30 20:58 | 10.57673 | -67.68688 | 11790 ft | 307 kts | 78° |
| 2026-04-30 20:59 | 10.58243 | -67.64473 | 11097 ft | 301 kts | 90° |
| 2026-04-30 20:59 | 10.58310 | -67.62351 | 10726 ft | 300 kts | 89° |
| 2026-04-30 21:00 | 10.58454 | -67.58146 | 10096 ft | 294 kts | 89° |
| 2026-04-30 21:00 | 10.58604 | -67.54038 | 9220 ft | 285 kts | 90° |
| 2026-04-30 21:01 | 10.58743 | -67.50137 | 8465 ft | 267 kts | 89° |
| 2026-04-30 21:01 | 10.58808 | -67.48283 | 8109 ft | 258 kts | 90° |
| 2026-04-30 21:01 | 10.58929 | -67.44738 | 7404 ft | 245 kts | 90° |
| 2026-04-30 21:02 | 10.58983 | -67.43033 | 7065 ft | 244 kts | 91° |
| 2026-04-30 21:02 | 10.59039 | -67.41308 | 6712 ft | 242 kts | 90° |
| 2026-04-30 21:02 | 10.59097 | -67.39619 | 6368 ft | 237 kts | 90° |
| 2026-04-30 21:02 | 10.59155 | -67.37963 | 6006 ft | 232 kts | 90° |
| 2026-04-30 21:03 | 10.59211 | -67.36344 | 5656 ft | 227 kts | 91° |
| 2026-04-30 21:03 | 10.59266 | -67.34758 | 5314 ft | 222 kts | 90° |
| 2026-04-30 21:03 | 10.59319 | -67.33208 | 4979 ft | 218 kts | 90° |
| 2026-04-30 21:03 | 10.59372 | -67.31683 | 4642 ft | 214 kts | 89° |
| 2026-04-30 21:04 | 10.59422 | -67.30194 | 4344 ft | 208 kts | 89° |
| 2026-04-30 21:04 | 10.59472 | -67.28730 | 4020 ft | 204 kts | 88° |
| 2026-04-30 21:04 | 10.59691 | -67.26032 | 3826 ft | 181 kts | 85° |
| 2026-04-30 21:05 | 10.59815 | -67.24745 | 3753 ft | 183 kts | 85° |
| 2026-04-30 21:05 | 10.59939 | -67.23457 | 3671 ft | 183 kts | 84° |
| 2026-04-30 21:05 | 10.60063 | -67.22172 | 3595 ft | 182 kts | 85° |
| 2026-04-30 21:05 | 10.60180 | -67.20926 | 3554 ft | 171 kts | 85° |
| 2026-04-30 21:06 | 10.60246 | -67.19774 | 3339 ft | 161 kts | 88° |
| 2026-04-30 21:06 | 10.60284 | -67.18683 | 3113 ft | 150 kts | 89° |
| 2026-04-30 21:06 | 10.60317 | -67.17634 | 2887 ft | 148 kts | 88° |
| 2026-04-30 21:06 | 10.60350 | -67.16598 | 2682 ft | 146 kts | 88° |
| 2026-04-30 21:07 | 10.60382 | -67.15564 | 2477 ft | 146 kts | 89° |
| 2026-04-30 21:07 | 10.60415 | -67.14524 | 2280 ft | 148 kts | 88° |
| 2026-04-30 21:07 | 10.60448 | -67.13478 | 2090 ft | 148 kts | 89° |
| 2026-04-30 21:07 | 10.60447 | -67.12434 | 1926 ft | 147 kts | 91° |
| 2026-04-30 21:08 | 10.60408 | -67.11399 | 1764 ft | 146 kts | 93° |
| 2026-04-30 21:08 | 10.60334 | -67.10375 | 1565 ft | 145 kts | 95° |
| 2026-04-30 21:08 | 10.60243 | -67.09351 | 1370 ft | 146 kts | 95° |
| 2026-04-30 21:08 | 10.60128 | -67.08322 | 1169 ft | 147 kts | 96° |
| 2026-04-30 21:09 | 10.60030 | -67.07292 | 1029 ft | 145 kts | 96° |
| 2026-04-30 21:09 | 10.59949 | -67.06274 | 903 ft | 144 kts | 89° |
| 2026-04-30 21:09 | 10.59994 | -67.05272 | 856 ft | 144 kts | 85° |
| 2026-04-30 21:09 | 10.60105 | -67.04269 | 799 ft | 142 kts | 84° |
| 2026-04-30 21:10 | 10.60173 | -67.03268 | 642 ft | 141 kts | 90° |
| 2026-04-30 21:10 | 10.60183 | -67.02261 | 476 ft | 144 kts | 90° |
| 2026-04-30 21:10 | 10.60216 | -67.01250 | 299 ft | 141 kts | 89° |
| 2026-04-30 21:10 | 10.60245 | -67.00315 | 230 ft | 121 kts | 88° |
| 2026-04-30 21:11 | 10.60266 | -66.99586 | 208 ft | 68 kts | 88° |
| 2026-04-30 21:11 | 10.60274 | -66.99309 | 196 ft | 24 kts | 88° |
| 2026-04-30 21:11 | 10.60277 | -66.99222 | 189 ft | 19 kts | 88° |
| 2026-04-30 21:11 | 10.60258 | -66.99111 | 194 ft | 9 kts | 161° |
| 2026-04-30 21:12 | 10.60211 | -66.99111 | 201 ft | 14 kts | 181° |
| 2026-04-30 21:12 | 10.60105 | -66.99090 | 189 ft | 16 kts | 165° |
| 2026-04-30 21:12 | 10.60027 | -66.99132 | 196 ft | 14 kts | 253° |
| 2026-04-30 21:12 | 10.59996 | -66.99264 | 198 ft | 25 kts | 258° |
| 2026-04-30 21:13 | 10.59950 | -66.99445 | 210 ft | 26 kts | 255° |
| 2026-04-30 21:13 | 10.59913 | -66.99581 | 216 ft | 12 kts | 255° |
| 2026-04-30 21:13 | 10.59934 | -66.99648 | 219 ft | 11 kts | 316° |
| 2026-04-30 21:13 | 10.59998 | -66.99663 | 222 ft | 9 kts | 358° |
| 2026-04-30 21:14 | 10.60072 | -66.99666 | 214 ft | 12 kts | 358° |
| 2026-04-30 21:14 | 10.60139 | -66.99716 | 210 ft | 13 kts | 274° |
| 2026-04-30 21:14 | 10.60137 | -66.99795 | 213 ft | 11 kts | 268° |
| 2026-04-30 21:14 | 10.60134 | -66.99873 | 221 ft | 9 kts | 266° |
| 2026-04-30 21:15 | 10.60123 | -66.99952 | 219 ft | 11 kts | 261° |
| 2026-04-30 21:15 | 10.60120 | -67.00043 | 220 ft | 15 kts | 269° |
| 2026-04-30 21:15 | 10.60117 | -67.00151 | 222 ft | 14 kts | 268° |
| 2026-04-30 21:15 | 10.60114 | -67.00230 | 224 ft | 8 kts | 267° |
| 2026-04-30 21:16 | 10.60104 | -67.00279 | 226 ft | 6 kts | 241° |
| 2026-04-30 21:16 | 10.60058 | -67.00294 | 225 ft | 10 kts | 178° |
| 2026-04-30 21:16 | 10.59981 | -67.00292 | 225 ft | 11 kts | 180° |
| 2026-04-30 21:16 | 10.59926 | -67.00326 | 225 ft | 9 kts | 255° |
| 2026-04-30 21:17 | 10.59923 | -67.00396 | 227 ft | 9 kts | 268° |
| 2026-04-30 21:17 | 10.59921 | -67.00464 | 229 ft | 13 kts | 268° |
| 2026-04-30 21:17 | 10.59918 | -67.00544 | 229 ft | 10 kts | 268° |
| 2026-04-30 21:17 | 10.59916 | -67.00605 | 230 ft | 8 kts | 269° |
| 2026-04-30 21:18 | 10.59915 | -67.00655 | 231 ft | 6 kts | 268° |
| 2026-04-30 21:18 | 10.59892 | -67.00676 | 232 ft | 5 kts | 189° |
| 2026-04-30 21:18 | 10.59860 | -67.00676 | 231 ft | 5 kts | 178° |
| 2026-04-30 21:18 | 10.59827 | -67.00675 | 231 ft | 4 kts | 178° |
| 2026-04-30 21:19 | 10.59822 | -67.00675 | 231 ft | 0 kts | 178° |